Weather at Jsi Airport

Public forecast

Using degrees Fahrenheit for public forecast. Weather courtesy of forecast.io.

Closest aviation weather report (METAR) to Jsi Airport

Closest report is McKinney National Airport, 5.2 nm (9.7 km) W.

2024/05/25 17:53 (retrieved 20 minutes ago)

KTKI 251753Z 15010KT 10SM OVC017 28/23 A2980 RMK AO2 SLP086 T02830233 10283 20211 58017

Closest aviation forecast (TAF) to Jsi Airport

Closest forecast is Dallas Love Field, 26.6 nm (49.2 km) SW.

2024/05/25 18:30 (retrieved 0 seconds ago)

TAF KDAL 251727Z 2518/2618 12008KT P6SM BKN018 FM251900 17014KT P6SM SCT040 FM260100 16015G25KT P6SM VCTS SCT050CB BKN100 FM260400 18016KT P6SM SCT120 FM261200 19014KT P6SM BKN015 FM261700 20015G25KT P6SM FEW020